Time;durP1;ratioP1;P1;durP2;ratioP2;P2;SDS_P1;SDS_P2;PMS_P1;PMS_P2;Temp;Humidity;BMP_temperature;BMP_pressure;BME280_temperature;BME280_humidity;BME280_pressure;Samples;Min_cycle;Max_cycle;Signal;HPM_P1;HPM_P2
2023/11/03 00:01:11;;;;;;;0.00;0.00;;;;;;;8.12;91.28;96757.03;4940617;28;20123;-77
2023/11/03 00:03:38;;;;;;;0.00;0.00;;;;;;;8.00;92.14;96737.97;4969245;28;20495;-78
2023/11/03 00:06:04;;;;;;;0.00;0.00;;;;;;;8.12;91.33;96757.03;4914885;28;20039;-78
2023/11/03 00:08:38;;;;;;;0.00;0.00;;;;;;;8.03;92.19;96748.16;4931088;28;20528;-77
2023/11/03 00:11:12;;;;;;;0.00;0.00;;;;;;;8.02;92.10;96738.44;4944092;28;20042;-77
2023/11/03 00:13:38;;;;;;;0.00;0.00;;;;;;;8.12;92.15;96754.31;4957110;28;20023;-77
2023/11/03 00:16:04;;;;;;;0.00;0.00;;;;;;;8.01;91.76;96756.66;4969981;28;20094;-78
2023/11/03 00:18:29;;;;;;;0.00;0.00;;;;;;;7.99;91.26;96742.63;4951713;28;20026;-77
2023/11/03 00:20:55;;;;;;;0.00;0.00;;;;;;;8.14;92.03;96771.09;4953332;28;20672;-78
2023/11/03 00:23:23;;;;;;;0.00;0.00;;;;;;;8.10;91.88;96770.16;4949717;28;20028;-77
2023/11/03 00:25:53;;;;;;;0.00;0.00;;;;;;;7.80;91.49;96726.84;4963780;28;20197;-76
2023/11/03 00:28:20;;;;;;;0.00;0.00;;;;;;;7.96;91.50;96750.69;4944770;28;20031;-77
2023/11/03 00:30:46;;;;;;;0.00;0.00;;;;;;;7.86;91.68;96732.88;4950860;28;20042;-78
2023/11/03 00:33:14;;;;;;;0.08;0.08;;;;;;;7.96;91.55;96758.84;4921582;28;20815;-77
2023/11/03 00:35:41;;;;;;;0.10;0.10;;;;;;;8.13;92.40;96780.41;4958663;28;20114;-77
2023/11/03 00:38:06;;;;;;;0.00;0.00;;;;;;;8.03;91.25;96764.50;4949182;28;20038;-77
2023/11/03 00:40:31;;;;;;;0.00;0.00;;;;;;;8.11;91.40;96779.94;4953723;28;20054;-77
2023/11/03 00:43:00;;;;;;;0.00;0.00;;;;;;;8.09;90.58;96790.38;4918731;28;20854;-78
2023/11/03 00:45:25;;;;;;;0.00;0.00;;;;;;;8.05;91.34;96784.00;4921855;28;20121;-77
2023/11/03 00:47:53;;;;;;;0.00;0.00;;;;;;;7.99;91.25;96786.16;4932911;28;20110;-77
2023/11/03 00:50:19;;;;;;;0.00;0.00;;;;;;;8.04;90.40;96799.56;4934542;28;20445;-77
2023/11/03 00:52:45;;;;;;;0.00;0.00;;;;;;;7.99;90.55;96799.75;4931089;28;20031;-77
2023/11/03 00:55:11;;;;;;;0.00;0.00;;;;;;;8.04;90.35;96809.63;4935089;28;20462;-77
2023/11/03 00:57:39;;;;;;;0.00;0.00;;;;;;;8.00;91.13;96811.44;4948740;28;20030;-78
2023/11/03 01:00:15;;;;;;;0.00;0.00;;;;;;;7.78;91.54;96786.25;4910872;28;20028;-76
2023/11/03 01:02:43;;;;;;;0.00;0.00;;;;;;;7.69;91.10;96782.81;4961851;28;20054;-77
2023/11/03 01:05:10;;;;;;;0.00;0.00;;;;;;;7.63;92.01;96782.22;4948407;28;20035;-79
2023/11/03 01:07:38;;;;;;;0.00;0.00;;;;;;;7.74;93.36;96809.78;4944416;28;20039;-78
2023/11/03 01:10:08;;;;;;;0.00;0.00;;;;;;;7.62;94.81;96798.88;4933405;28;20098;-79
2023/11/03 01:12:34;;;;;;;0.10;0.10;;;;;;;7.50;95.43;96805.88;4963194;28;20031;-78
2023/11/03 01:15:02;;;;;;;0.00;0.00;;;;;;;7.32;96.25;96788.13;4941232;28;20564;-78
2023/11/03 01:17:28;;;;;;;0.00;0.00;;;;;;;7.42;94.57;96817.59;4939425;28;20165;-78
2023/11/03 01:19:55;;;;;;;0.00;0.00;;;;;;;7.39;95.77;96821.00;4958937;28;20118;-78
2023/11/03 01:22:22;;;;;;;0.00;0.00;;;;;;;7.39;96.14;96845.47;4895349;28;20031;-79
2023/11/03 01:24:51;;;;;;;0.00;0.00;;;;;;;7.20;96.30;96820.66;4924272;28;20023;-78
2023/11/03 01:27:17;;;;;;;0.00;0.00;;;;;;;7.22;97.50;96824.66;4926364;28;20035;-78
2023/11/03 01:29:42;;;;;;;0.00;0.00;;;;;;;6.92;98.87;96804.88;4935530;28;20032;-77
2023/11/03 01:32:09;;;;;;;0.00;0.00;;;;;;;6.90;97.83;96812.59;4930171;29;20469;-77
2023/11/03 01:34:34;;;;;;;0.00;0.00;;;;;;;7.03;97.97;96838.69;4920351;28;20510;-78
2023/11/03 01:37:00;;;;;;;0.00;0.00;;;;;;;6.79;98.42;96815.69;4917510;28;20043;-78
2023/11/03 01:39:26;;;;;;;0.00;0.00;;;;;;;6.86;99.18;96839.59;4930590;28;20031;-77
2023/11/03 01:41:51;;;;;;;0.00;0.00;;;;;;;6.73;100.00;96840.63;4940929;28;20019;-77
2023/11/03 01:44:18;;;;;;;0.00;0.00;;;;;;;6.74;99.66;96848.44;4917835;28;20126;-77
2023/11/03 01:46:44;;;;;;;0.00;0.00;;;;;;;6.66;99.95;96838.44;4933943;28;20086;-78
2023/11/03 01:49:13;;;;;;;0.00;0.00;;;;;;;6.50;100.00;96829.25;4890935;28;20039;-77
2023/11/03 01:51:41;;;;;;;0.00;0.00;;;;;;;6.42;100.00;96830.91;4930834;29;20023;-79
2023/11/03 01:54:09;;;;;;;0.00;0.00;;;;;;;6.39;100.00;96831.56;4939297;28;20110;-77
2023/11/03 01:56:47;;;;;;;0.00;0.00;;;;;;;6.35;100.00;96825.19;4888508;29;20058;-78
2023/11/03 01:59:13;;;;;;;0.00;0.00;;;;;;;6.50;100.00;96864.53;4912125;28;20039;-77
2023/11/03 02:01:43;;;;;;;0.00;0.00;;;;;;;6.52;100.00;96859.59;4911373;29;20369;-79
2023/11/03 02:04:08;;;;;;;0.00;0.00;;;;;;;6.29;100.00;96838.13;4921356;29;20053;-76
2023/11/03 02:06:41;;;;;;;0.00;0.00;;;;;;;6.22;100.00;96832.41;4938850;28;20067;-78
2023/11/03 02:09:09;;;;;;;0.00;0.00;;;;;;;6.21;100.00;96842.47;4908426;28;20037;-77
2023/11/03 02:11:42;;;;;;;0.00;0.00;;;;;;;6.22;100.00;96849.50;4894176;29;20027;-77
2023/11/03 02:14:08;;;;;;;0.00;0.00;;;;;;;6.31;100.00;96862.22;4928401;29;20084;-78
2023/11/03 02:16:35;;;;;;;0.00;0.00;;;;;;;6.25;100.00;96850.75;4932196;28;20110;-78
2023/11/03 02:19:03;;;;;;;0.00;0.00;;;;;;;6.32;100.00;96867.31;4922373;28;20482;-79
2023/11/03 02:21:29;;;;;;;0.10;0.10;;;;;;;6.29;100.00;96870.69;4929827;28;20094;-77
2023/11/03 02:23:54;;;;;;;0.00;0.00;;;;;;;6.18;100.00;96858.63;4925406;28;20143;-77
2023/11/03 02:26:20;;;;;;;0.00;0.00;;;;;;;6.24;100.00;96871.66;4941552;28;20724;-78
2023/11/03 02:28:46;;;;;;;0.00;0.00;;;;;;;6.20;100.00;96861.78;4921639;28;20034;-77
2023/11/03 02:31:11;;;;;;;0.00;0.00;;;;;;;6.16;100.00;96856.19;4924762;29;20047;-78
2023/11/03 02:33:37;;;;;;;0.00;0.00;;;;;;;6.15;100.00;96854.63;4917006;28;20030;-77
2023/11/03 02:36:06;;;;;;;0.00;0.00;;;;;;;6.21;100.00;96868.81;4930414;28;20040;-78
2023/11/03 02:38:34;;;;;;;0.00;0.00;;;;;;;6.28;100.00;96874.53;4911383;28;20086;-76
2023/11/03 02:41:03;;;;;;;0.00;0.00;;;;;;;6.17;100.00;96857.03;4892524;28;20982;-78
2023/11/03 02:43:28;;;;;;;0.00;0.00;;;;;;;6.19;100.00;96857.47;4909495;28;20062;-78
2023/11/03 02:45:54;;;;;;;0.00;0.00;;;;;;;6.19;100.00;96865.63;4910944;28;20059;-77
2023/11/03 02:48:19;;;;;;;0.10;0.10;;;;;;;6.31;100.00;96883.94;4941096;28;20363;-77
2023/11/03 02:50:45;;;;;;;0.00;0.00;;;;;;;6.24;100.00;96873.59;4915973;28;20040;-76
2023/11/03 02:53:11;;;;;;;0.00;0.00;;;;;;;6.13;100.00;96853.34;4924259;29;20122;-78
2023/11/03 02:55:37;;;;;;;0.00;0.00;;;;;;;6.21;100.00;96861.47;4937877;28;20039;-78
2023/11/03 02:58:03;;;;;;;0.00;0.00;;;;;;;6.27;100.00;96875.66;4925567;28;20069;-76
2023/11/03 03:00:29;;;;;;;0.00;0.00;;;;;;;6.21;100.00;96879.66;4926593;28;20055;-77
2023/11/03 03:02:56;;;;;;;0.00;0.00;;;;;;;6.13;100.00;96875.06;4939088;28;20713;-77
2023/11/03 03:05:22;;;;;;;0.00;0.00;;;;;;;5.95;100.00;96842.53;4912496;29;20028;-77
2023/11/03 03:07:48;;;;;;;0.10;0.10;;;;;;;6.09;100.00;96867.56;4941668;28;20728;-78
2023/11/03 03:10:13;;;;;;;0.00;0.00;;;;;;;6.06;100.00;96864.69;4898660;29;20038;-78
2023/11/03 03:12:41;;;;;;;0.10;0.10;;;;;;;6.14;100.00;96873.94;4942378;28;20027;-78
2023/11/03 03:15:09;;;;;;;0.00;0.00;;;;;;;6.13;100.00;96872.34;4932878;28;20031;-76
2023/11/03 03:17:34;;;;;;;0.00;0.00;;;;;;;6.10;100.00;96869.16;4936098;29;20112;-77
2023/11/03 03:20:00;;;;;;;0.00;0.00;;;;;;;6.19;100.00;96881.91;4907356;28;20194;-77
2023/11/03 03:22:25;;;;;;;0.00;0.00;;;;;;;6.15;100.00;96875.53;4929440;28;20053;-77
2023/11/03 03:24:51;;;;;;;0.00;0.00;;;;;;;6.16;100.00;96882.53;4908582;28;20032;-77
2023/11/03 03:27:16;;;;;;;0.00;0.00;;;;;;;6.16;100.00;96883.34;4915680;28;20023;-77
2023/11/03 03:29:42;;;;;;;0.00;0.00;;;;;;;6.09;100.00;96878.41;4906871;28;20034;-78
2023/11/03 03:32:08;;;;;;;0.00;0.00;;;;;;;6.08;100.00;96890.38;4913062;29;20133;-77
2023/11/03 03:34:34;;;;;;;0.00;0.00;;;;;;;6.10;100.00;96890.06;4909804;28;20110;-77
2023/11/03 03:36:59;;;;;;;0.00;0.00;;;;;;;6.05;100.00;96887.53;4915267;28;21501;-77
2023/11/03 03:39:27;;;;;;;0.00;0.00;;;;;;;5.93;100.00;96886.25;4912738;28;20672;-77
2023/11/03 03:41:53;;;;;;;0.10;0.10;;;;;;;5.78;100.00;96867.75;4929574;28;20034;-76
2023/11/03 03:44:18;;;;;;;0.00;0.00;;;;;;;5.84;100.00;96876.53;4912907;28;20031;-77
2023/11/03 03:46:44;;;;;;;0.00;0.00;;;;;;;5.81;100.00;96877.97;4916202;29;20023;-77
2023/11/03 03:49:09;;;;;;;0.00;0.00;;;;;;;5.86;100.00;96890.56;4941354;28;20031;-77
2023/11/03 03:51:35;;;;;;;0.00;0.00;;;;;;;5.77;100.00;96887.88;4928419;29;20474;-77
2023/11/03 03:54:00;;;;;;;0.08;0.08;;;;;;;5.77;100.00;96883.22;4900191;28;20367;-78
2023/11/03 03:56:26;;;;;;;0.00;0.00;;;;;;;5.91;100.00;96890.38;4913498;28;20059;-77
2023/11/03 03:58:57;;;;;;;0.00;0.00;;;;;;;5.83;100.00;96881.16;4943750;28;20480;-78
2023/11/03 04:01:28;;;;;;;0.10;0.10;;;;;;;5.86;100.00;96874.31;4931866;28;21129;-78
2023/11/03 04:04:03;;;;;;;0.00;0.00;;;;;;;5.91;100.00;96871.41;4928562;28;20524;-77
2023/11/03 04:06:38;;;;;;;0.08;0.08;;;;;;;5.90;100.00;96875.25;4913944;28;20038;-77
2023/11/03 04:09:05;;;;;;;0.00;0.00;;;;;;;5.98;100.00;96877.16;4935589;28;20037;-77
2023/11/03 04:11:31;;;;;;;0.00;0.00;;;;;;;5.98;100.00;96874.44;4930520;28;20389;-77
2023/11/03 04:13:57;;;;;;;0.00;0.00;;;;;;;6.06;100.00;96894.53;4936830;28;20035;-77
2023/11/03 04:16:23;;;;;;;0.00;0.00;;;;;;;6.05;100.00;96888.31;4924849;28;20046;-76
2023/11/03 04:18:48;;;;;;;0.00;0.00;;;;;;;6.07;100.00;96894.22;4905725;28;20332;-77
2023/11/03 04:21:14;;;;;;;0.00;0.00;;;;;;;6.10;100.00;96890.88;4946344;28;20059;-76
2023/11/03 04:23:39;;;;;;;0.00;0.00;;;;;;;5.91;100.00;96872.22;4960100;28;20466;-77
2023/11/03 04:26:05;;;;;;;0.00;0.00;;;;;;;5.91;100.00;96890.38;4949860;28;20117;-77
2023/11/03 04:28:30;;;;;;;0.00;0.00;;;;;;;5.93;100.00;96890.88;4932608;28;20450;-77
2023/11/03 04:30:56;;;;;;;0.00;0.00;;;;;;;5.99;100.00;96905.88;4918281;28;20780;-78
2023/11/03 04:33:21;;;;;;;0.00;0.00;;;;;;;5.95;100.00;96899.47;4966223;28;20043;-77
2023/11/03 04:35:47;;;;;;;0.00;0.00;;;;;;;5.94;100.00;96916.84;4939969;28;20039;-77
2023/11/03 04:38:12;;;;;;;0.00;0.00;;;;;;;5.97;100.00;96916.25;4941402;28;20031;-77
2023/11/03 04:40:38;;;;;;;0.10;0.10;;;;;;;5.87;100.00;96914.66;4934923;28;20034;-77
2023/11/03 04:43:03;;;;;;;0.00;0.00;;;;;;;5.84;100.00;96919.91;4928311;28;20027;-77
2023/11/03 04:45:29;;;;;;;0.00;0.00;;;;;;;5.73;100.00;96914.03;4936508;28;20077;-77
2023/11/03 04:47:55;;;;;;;0.00;0.00;;;;;;;5.63;100.00;96893.44;4923349;28;20039;-77
2023/11/03 04:50:20;;;;;;;0.00;0.00;;;;;;;5.70;100.00;96923.59;4928742;28;20031;-77
2023/11/03 04:52:46;;;;;;;0.00;0.00;;;;;;;5.69;100.00;96926.63;4946965;28;20405;-77
2023/11/03 04:55:12;;;;;;;0.00;0.00;;;;;;;5.65;100.00;96923.75;4949812;28;21715;-77
2023/11/03 04:57:38;;;;;;;0.00;0.00;;;;;;;5.56;100.00;96925.66;4945151;28;20051;-76
2023/11/03 05:00:09;;;;;;;0.00;0.00;;;;;;;5.47;100.00;96922.16;4962324;28;21694;-77
2023/11/03 05:02:35;;;;;;;0.00;0.00;;;;;;;5.36;100.00;96918.94;4954334;28;20364;-78
2023/11/03 05:05:04;;;;;;;0.00;0.00;;;;;;;5.44;100.00;96930.94;4914516;28;20034;-78
2023/11/03 05:07:31;;;;;;;0.00;0.00;;;;;;;5.41;100.00;96922.28;4952556;28;20057;-78
2023/11/03 05:09:57;;;;;;;0.00;0.00;;;;;;;5.42;100.00;96929.31;4948284;28;20042;-77
2023/11/03 05:12:22;;;;;;;0.00;0.00;;;;;;;5.45;100.00;96929.78;4933148;28;20033;-77
2023/11/03 05:14:51;;;;;;;0.00;0.00;;;;;;;5.53;100.00;96931.72;4918594;28;20031;-77
2023/11/03 05:17:16;;;;;;;0.00;0.00;;;;;;;5.50;100.00;96910.69;4944419;28;20022;-78
2023/11/03 05:19:42;;;;;;;0.00;0.00;;;;;;;5.48;100.00;96905.56;4949738;28;20121;-78
2023/11/03 05:22:10;;;;;;;0.00;0.00;;;;;;;5.56;100.00;96914.81;4927572;28;20032;-77
2023/11/03 05:24:36;;;;;;;0.00;0.00;;;;;;;5.53;100.00;96908.09;4962663;28;20423;-77
2023/11/03 05:27:02;;;;;;;0.00;0.00;;;;;;;5.58;100.00;96909.88;4959118;28;20035;-77
2023/11/03 05:29:27;;;;;;;0.00;0.00;;;;;;;5.54;100.00;96898.88;4947870;28;20018;-76
2023/11/03 05:31:53;;;;;;;0.00;0.00;;;;;;;5.58;100.00;96913.38;4924046;28;20050;-76
2023/11/03 05:34:21;;;;;;;0.00;0.00;;;;;;;5.62;100.00;96918.16;4943950;28;20039;-77
2023/11/03 05:36:46;;;;;;;0.00;0.00;;;;;;;5.61;100.00;96928.22;4931106;29;20637;-79
2023/11/03 05:39:12;;;;;;;0.00;0.00;;;;;;;5.49;100.00;96925.34;4929583;28;20038;-78
2023/11/03 05:41:38;;;;;;;0.00;0.00;;;;;;;5.52;100.00;96930.13;4924843;28;20406;-77
2023/11/03 05:44:04;;;;;;;0.00;0.00;;;;;;;5.58;100.00;96939.69;4931837;28;20026;-77
2023/11/03 05:46:30;;;;;;;0.00;0.00;;;;;;;5.48;100.00;96929.97;4958334;28;20034;-77
2023/11/03 05:48:56;;;;;;;0.00;0.00;;;;;;;5.49;100.00;96936.16;4942999;28;20394;-76
2023/11/03 05:51:22;;;;;;;0.00;0.00;;;;;;;5.48;100.00;96929.19;4942583;28;20023;-76
2023/11/03 05:53:48;;;;;;;0.00;0.00;;;;;;;5.62;100.00;96935.22;4934194;28;20027;-77
2023/11/03 05:56:14;;;;;;;0.00;0.00;;;;;;;5.66;100.00;96936.19;4928952;28;20054;-76
2023/11/03 05:58:40;;;;;;;0.00;0.00;;;;;;;5.63;100.00;96934.09;4957673;28;20038;-77
2023/11/03 06:01:07;;;;;;;0.10;0.10;;;;;;;5.63;100.00;96938.75;4929635;28;20031;-76
2023/11/03 06:03:33;;;;;;;0.00;0.00;;;;;;;5.64;100.00;96951.97;4941184;28;20035;-77
2023/11/03 06:05:58;;;;;;;0.00;0.00;;;;;;;5.53;100.00;96943.34;4939682;28;20023;-77
2023/11/03 06:08:24;;;;;;;0.00;0.00;;;;;;;5.52;100.00;96951.78;4934499;28;20045;-77
2023/11/03 06:10:50;;;;;;;0.00;0.00;;;;;;;5.43;100.00;96932.81;4941972;28;20136;-76
2023/11/03 06:13:20;;;;;;;0.00;0.00;;;;;;;5.57;100.00;96946.22;4933127;28;20046;-77
2023/11/03 06:15:48;;;;;;;0.00;0.00;;;;;;;5.79;100.00;96960.75;4964333;28;20034;-77
2023/11/03 06:18:13;;;;;;;0.00;0.00;;;;;;;5.88;100.00;96942.56;4926896;28;20089;-77
2023/11/03 06:20:39;;;;;;;0.00;0.00;;;;;;;5.92;100.00;96921.81;4943909;28;20545;-76
2023/11/03 06:23:04;;;;;;;0.03;0.03;;;;;;;6.29;100.00;96954.81;4915989;29;20188;-76
2023/11/03 06:25:37;;;;;;;0.10;0.10;;;;;;;6.25;100.00;96945.72;4925297;28;20040;-76
2023/11/03 06:28:03;;;;;;;0.10;0.10;;;;;;;6.24;100.00;96944.13;4933674;28;20137;-77
2023/11/03 06:30:29;;;;;;;0.00;0.00;;;;;;;6.40;100.00;96971.56;4954127;28;20054;-78
2023/11/03 06:32:54;;;;;;;0.00;0.00;;;;;;;6.35;100.00;96966.28;4933584;28;20029;-76
2023/11/03 06:35:20;;;;;;;0.00;0.00;;;;;;;6.40;100.00;96975.06;4928251;29;20130;-76
2023/11/03 06:37:45;;;;;;;0.00;0.00;;;;;;;6.39;100.00;96976.16;4950001;28;20035;-77
2023/11/03 06:40:11;;;;;;;0.00;0.00;;;;;;;6.39;100.00;96973.47;4967096;28;20496;-77
2023/11/03 06:42:40;;;;;;;0.00;0.00;;;;;;;6.54;100.00;96984.94;4926224;28;20074;-76
2023/11/03 06:45:07;;;;;;;0.00;0.00;;;;;;;6.41;100.00;96965.00;4970727;28;20050;-78
2023/11/03 06:47:34;;;;;;;0.00;0.00;;;;;;;6.53;100.00;96972.50;4948590;28;20057;-78
2023/11/03 06:49:59;;;;;;;0.00;0.00;;;;;;;6.63;100.00;96974.84;4936601;28;20031;-76
2023/11/03 06:52:25;;;;;;;0.00;0.00;;;;;;;6.68;100.00;96979.31;4958401;28;20069;-76
2023/11/03 06:54:50;;;;;;;0.00;0.00;;;;;;;6.74;100.00;96978.00;4929131;28;20027;-78
2023/11/03 06:57:16;;;;;;;0.00;0.00;;;;;;;6.70;100.00;96972.44;4935351;28;20039;-76
2023/11/03 06:59:41;;;;;;;0.00;0.00;;;;;;;6.79;100.00;96983.25;4952850;28;20038;-75
2023/11/03 07:02:08;;;;;;;0.00;0.00;;;;;;;6.87;100.00;96987.06;4943034;28;20105;-74
2023/11/03 07:04:34;;;;;;;0.00;0.00;;;;;;;6.88;100.00;96984.03;4951340;28;20489;-77
2023/11/03 07:07:00;;;;;;;0.00;0.00;;;;;;;6.91;100.00;96977.16;4940165;28;20047;-77
2023/11/03 07:09:26;;;;;;;0.00;0.00;;;;;;;7.01;100.00;96986.84;4936090;29;20039;-78
2023/11/03 07:11:51;;;;;;;0.00;0.00;;;;;;;7.10;100.00;96999.25;4933043;28;20078;-76
2023/11/03 07:14:16;;;;;;;0.00;0.00;;;;;;;6.88;100.00;96961.47;4944147;28;20440;-78
2023/11/03 07:16:42;;;;;;;0.00;0.00;;;;;;;7.01;100.00;96974.06;4935572;28;20512;-77
2023/11/03 07:19:08;;;;;;;0.10;0.10;;;;;;;7.19;100.00;97004.66;4935630;28;20030;-77
2023/11/03 07:21:34;;;;;;;0.00;0.00;;;;;;;7.15;100.00;97001.81;4967027;28;20141;-78
2023/11/03 07:24:00;;;;;;;0.00;0.00;;;;;;;7.26;100.00;97004.16;4946008;28;20031;-77
2023/11/03 07:26:28;;;;;;;0.00;0.00;;;;;;;7.39;100.00;97005.84;4943293;28;20027;-77
2023/11/03 07:28:54;;;;;;;0.00;0.00;;;;;;;7.38;100.00;96996.09;4933009;28;20042;-79
2023/11/03 07:31:24;;;;;;;0.00;0.00;;;;;;;7.56;100.00;97012.28;4952128;28;20508;-78
2023/11/03 07:33:52;;;;;;;0.00;0.00;;;;;;;7.63;100.00;97007.13;4961247;28;20112;-77
2023/11/03 07:36:19;;;;;;;0.00;0.00;;;;;;;7.45;100.00;96969.19;4936544;28;20049;-78
2023/11/03 07:38:45;;;;;;;0.00;0.00;;;;;;;7.54;100.00;96987.38;4921226;28;20548;-79
2023/11/03 07:41:10;;;;;;;0.00;0.00;;;;;;;7.75;100.00;97020.78;4916122;28;20114;-79
2023/11/03 07:43:39;;;;;;;0.00;0.00;;;;;;;7.58;100.00;96993.72;4919890;28;20066;-80
2023/11/03 07:46:04;;;;;;;0.00;0.00;;;;;;;7.63;100.00;97007.91;4945950;28;20077;-78
2023/11/03 07:48:30;;;;;;;0.00;0.00;;;;;;;7.64;100.00;96993.19;4940700;28;20042;-75
2023/11/03 07:50:55;;;;;;;0.10;0.10;;;;;;;7.86;100.00;97021.22;4942827;28;20033;-76
2023/11/03 07:53:21;;;;;;;0.00;0.00;;;;;;;8.02;100.00;97029.56;4930841;28;20099;-78
2023/11/03 07:55:48;;;;;;;0.00;0.00;;;;;;;8.05;100.00;96996.25;4945791;28;20031;-78
2023/11/03 07:58:16;;;;;;;0.00;0.00;;;;;;;8.28;100.00;97001.31;4944621;28;20027;-77
2023/11/03 08:00:44;;;;;;;0.00;0.00;;;;;;;8.42;100.00;97003.78;4955084;28;20030;-77
2023/11/03 08:03:10;;;;;;;0.00;0.00;;;;;;;8.50;100.00;97016.53;4938290;28;20034;-79
2023/11/03 08:05:37;;;;;;;0.00;0.00;;;;;;;8.47;100.00;97015.28;4941142;28;20284;-78
2023/11/03 08:08:04;;;;;;;0.00;0.00;;;;;;;8.44;100.00;97021.41;4966338;28;20055;-77
2023/11/03 08:10:30;;;;;;;0.00;0.00;;;;;;;8.41;100.00;97030.22;4936816;28;20074;-78
2023/11/03 08:12:57;;;;;;;0.00;0.00;;;;;;;8.37;100.00;97029.28;4942847;28;20050;-77
2023/11/03 08:15:23;;;;;;;0.00;0.00;;;;;;;8.47;100.00;97045.22;4927866;28;20089;-78
2023/11/03 08:17:48;;;;;;;0.00;0.00;;;;;;;8.76;100.00;97043.53;4954462;28;20031;-76
2023/11/03 08:20:15;;;;;;;0.00;0.00;;;;;;;9.23;100.00;97048.59;4926306;28;20482;-78
2023/11/03 08:22:44;;;;;;;0.00;0.00;;;;;;;10.21;100.00;97038.69;4921453;28;20029;-78
2023/11/03 08:25:11;;;;;;;0.00;0.00;;;;;;;12.70;93.39;97041.91;4916646;28;20030;-78
2023/11/03 08:27:37;;;;;;;0.00;0.00;;;;;;;15.09;79.52;97047.72;4959992;28;20135;-78
2023/11/03 08:30:04;;;;;;;0.00;0.00;;;;;;;16.58;69.55;97047.56;4956721;28;20094;-79
2023/11/03 08:32:30;;;;;;;0.00;0.00;;;;;;;17.73;63.82;97050.53;4939296;28;20114;-78
2023/11/03 08:34:56;;;;;;;0.00;0.00;;;;;;;19.04;59.34;97062.03;4958792;28;20102;-78
2023/11/03 08:37:22;;;;;;;0.00;0.00;;;;;;;20.16;55.76;97045.31;4903920;28;20023;-77
2023/11/03 08:39:48;;;;;;;0.00;0.00;;;;;;;21.15;52.92;97063.19;4925288;28;20050;-78
2023/11/03 08:42:18;;;;;;;0.00;0.00;;;;;;;21.05;51.66;97062.13;4943913;28;20062;-77
2023/11/03 08:44:44;;;;;;;0.00;0.00;;;;;;;21.34;51.47;97050.59;4926813;29;20035;-79
2023/11/03 08:47:09;;;;;;;0.00;0.00;;;;;;;22.63;49.94;97058.69;4935594;28;20039;-76
2023/11/03 08:49:39;;;;;;;0.00;0.00;;;;;;;23.75;47.22;97076.53;4939448;28;20066;-75
2023/11/03 08:52:05;;;;;;;0.00;0.00;;;;;;;24.19;45.92;97074.25;4954399;28;20135;-76
2023/11/03 08:54:36;;;;;;;0.00;0.00;;;;;;;21.65;49.25;97044.97;4946879;28;20137;-77
2023/11/03 08:57:02;;;;;;;0.00;0.00;;;;;;;19.52;53.97;97064.06;4941840;28;20036;-77
2023/11/03 08:59:28;;;;;;;0.00;0.00;;;;;;;17.75;58.98;97070.25;4939497;28;20035;-75
2023/11/03 09:01:55;;;;;;;0.00;0.00;;;;;;;16.32;63.76;97065.19;4918089;28;20042;-76
2023/11/03 09:04:22;;;;;;;0.00;0.00;;;;;;;15.40;70.05;97056.66;4938393;28;20037;-76
2023/11/03 09:06:48;;;;;;;0.00;0.00;;;;;;;14.82;74.50;97056.09;4941986;28;20031;-76
2023/11/03 09:09:13;;;;;;;0.00;0.00;;;;;;;14.37;77.13;97057.91;4931344;28;20022;-76
2023/11/03 09:11:41;;;;;;;0.00;0.00;;;;;;;15.60;80.88;97070.97;4925481;28;20042;-76
2023/11/03 09:14:07;;;;;;;0.00;0.00;;;;;;;19.60;65.17;97062.84;4931385;28;20113;-76
2023/11/03 09:16:34;;;;;;;0.00;0.00;;;;;;;21.00;54.37;97071.69;4947873;28;20030;-75
2023/11/03 09:19:00;;;;;;;0.00;0.00;;;;;;;21.64;52.44;97083.13;4942925;28;20027;-76
2023/11/03 09:21:26;;;;;;;0.00;0.00;;;;;;;21.40;52.10;97074.69;4934728;28;20082;-77
2023/11/03 09:23:51;;;;;;;0.00;0.00;;;;;;;21.76;53.27;97079.72;4942379;28;20035;-77
2023/11/03 09:26:17;;;;;;;0.00;0.00;;;;;;;24.76;46.70;97085.13;4944263;28;20027;-76
2023/11/03 09:28:44;;;;;;;0.00;0.00;;;;;;;27.17;40.64;97090.41;4928712;28;20030;-76
2023/11/03 09:31:10;;;;;;;0.00;0.00;;;;;;;26.47;42.68;97082.13;4927247;28;20070;-76
2023/11/03 09:33:36;;;;;;;0.00;0.00;;;;;;;26.28;40.82;97086.81;4955383;28;20424;-76
2023/11/03 09:36:03;;;;;;;0.00;0.00;;;;;;;25.38;40.94;97089.72;4930375;28;21211;-78
2023/11/03 09:38:28;;;;;;;0.00;0.00;;;;;;;22.83;45.35;97092.88;4926125;29;20093;-78
2023/11/03 09:40:54;;;;;;;0.00;0.00;;;;;;;20.90;50.58;97092.06;4923075;28;20022;-76
2023/11/03 09:43:20;;;;;;;0.00;0.00;;;;;;;19.30;53.96;97086.41;4947837;28;20039;-76
2023/11/03 09:45:46;;;;;;;0.00;0.00;;;;;;;18.22;56.30;97091.56;4943552;28;20047;-76
2023/11/03 09:48:18;;;;;;;0.00;0.00;;;;;;;18.11;59.24;97086.84;4923835;28;20085;-76
2023/11/03 09:50:47;;;;;;;0.00;0.00;;;;;;;22.06;52.40;97089.16;4934525;28;20081;-76
2023/11/03 09:53:22;;;;;;;0.00;0.00;;;;;;;22.87;46.54;97081.69;4952896;28;20014;-77
2023/11/03 09:55:47;;;;;;;0.00;0.00;;;;;;;21.58;50.34;97071.69;4971716;28;20485;-77
2023/11/03 09:58:20;;;;;;;0.00;0.00;;;;;;;21.87;49.10;97079.53;4925162;28;20092;-77
2023/11/03 10:00:46;;;;;;;0.00;0.00;;;;;;;21.49;48.71;97099.19;4941172;28;20470;-76
2023/11/03 10:03:12;;;;;;;0.00;0.00;;;;;;;22.48;48.47;97109.09;4939780;28;20054;-78
2023/11/03 10:05:40;;;;;;;0.00;0.00;;;;;;;22.56;47.19;97092.25;4923158;28;20118;-76
2023/11/03 10:08:07;;;;;;;0.00;0.00;;;;;;;22.70;46.20;97080.84;4954885;28;20122;-74
2023/11/03 10:10:35;;;;;;;0.00;0.00;;;;;;;21.79;45.16;97112.25;4961415;28;20057;-77
2023/11/03 10:13:11;;;;;;;0.00;0.00;;;;;;;21.32;50.06;97095.47;4965225;28;20030;-78
2023/11/03 10:15:44;;;;;;;0.00;0.00;;;;;;;23.88;44.82;97080.22;4946218;28;20015;-76
2023/11/03 10:18:11;;;;;;;0.00;0.00;;;;;;;25.81;40.29;97093.94;4946449;28;20042;-77
2023/11/03 10:20:38;;;;;;;0.00;0.00;;;;;;;25.68;40.98;97095.97;4949305;28;20039;-77
2023/11/03 10:23:05;;;;;;;0.00;0.00;;;;;;;25.21;40.74;97086.97;4951151;28;20035;-77
2023/11/03 10:25:34;;;;;;;0.00;0.00;;;;;;;22.24;42.59;97101.97;4947687;28;20027;-78
2023/11/03 10:28:01;;;;;;;0.00;0.00;;;;;;;19.59;49.12;97091.72;4945095;28;20027;-78
2023/11/03 10:30:29;;;;;;;0.00;0.00;;;;;;;18.08;54.32;97081.34;4941024;28;20106;-78
2023/11/03 10:32:55;;;;;;;0.00;0.00;;;;;;;16.82;57.79;97059.88;4935761;28;20078;-80
2023/11/03 10:35:21;;;;;;;0.00;0.00;;;;;;;15.86;61.61;97072.78;4945903;28;20031;-78
2023/11/03 10:37:49;;;;;;;0.00;0.00;;;;;;;15.68;65.19;97077.34;4955721;28;20045;-78
2023/11/03 10:40:15;;;;;;;0.00;0.00;;;;;;;16.03;64.46;97065.00;4931866;28;20034;-78
2023/11/03 10:42:48;;;;;;;0.00;0.00;;;;;;;17.76;60.76;97079.34;4953970;28;20433;-77
2023/11/03 10:45:15;;;;;;;0.00;0.00;;;;;;;19.77;55.19;97085.25;4949584;28;20023;-78
2023/11/03 10:48:13;;;;;;;0.00;0.00;;;;;;;20.82;54.51;97094.16;4941037;28;20038;-77
2023/11/03 10:50:48;;;;;;;0.00;0.00;;;;;;;25.75;41.89;97090.91;4946907;28;20031;-78
2023/11/03 10:53:34;;;;;;;0.00;0.00;;;;;;;29.46;32.13;97098.03;4956027;28;20046;-77
2023/11/03 10:56:07;;;;;;;0.00;0.00;;;;;;;31.14;29.00;97071.03;4944818;28;20031;-76
2023/11/03 10:58:37;;;;;;;0.00;0.00;;;;;;;32.89;27.14;97075.50;4948899;28;20026;-78
2023/11/03 11:01:10;;;;;;;0.00;0.00;;;;;;;34.95;25.54;97068.47;4964376;28;20030;-76
2023/11/03 11:03:50;;;;;;;0.00;0.00;;;;;;;34.08;24.78;97078.47;4942397;28;20026;-76
2023/11/03 11:06:34;;;;;;;0.00;0.00;;;;;;;32.88;25.48;97071.13;4961119;28;20023;-76
2023/11/03 11:09:20;;;;;;;0.00;0.00;;;;;;;34.21;23.99;97080.84;4948041;28;20031;-78
2023/11/03 11:11:46;;;;;;;0.00;0.00;;;;;;;33.19;25.91;97075.25;4940074;28;20118;-78
2023/11/03 11:14:32;;;;;;;0.00;0.00;;;;;;;33.57;25.86;97063.97;4943120;28;20038;-77
2023/11/03 11:16:59;;;;;;;0.00;0.00;;;;;;;33.96;24.49;97059.88;4940763;28;20024;-78
2023/11/03 11:19:52;;;;;;;0.00;0.00;;;;;;;35.96;22.71;97066.91;4945276;28;20031;-77
2023/11/03 11:22:19;;;;;;;0.00;0.00;;;;;;;33.38;22.78;97055.09;4949354;28;20108;-78
2023/11/03 11:24:47;;;;;;;0.00;0.00;;;;;;;28.69;27.87;97049.31;4956033;28;20078;-78
2023/11/03 11:27:12;;;;;;;0.00;0.00;;;;;;;27.52;29.78;97046.19;4956878;28;20465;-78
2023/11/03 11:29:38;;;;;;;0.00;0.00;;;;;;;24.73;32.91;97032.91;4963868;28;20094;-78
2023/11/03 11:32:04;;;;;;;0.00;0.00;;;;;;;22.22;36.05;97032.03;4961114;28;20193;-77
2023/11/03 11:34:30;;;;;;;0.00;0.00;;;;;;;20.77;39.91;97033.53;4940372;28;20026;-77